Mentone, Texas
Current Conditions -  °F | °C
As of 3:35 PM on Friday 19 Dec 2014 (Local Time) from KPEQ Reporting Station
Clear Clear  
Wind Chill: 59°   Ceiling: Unl
Heat Index: 59°   Visibility: 10mi
Dew Point: 33°   Wind: 6mph
Humidity: 37%   Direction: 360°N
Pressure: 30.09"   Gusts: NA
Location:  31.71°N, 103.6°W
Report Text: KPEQ 192135Z AUTO 36005KT 10SM CLR 15/01 A3009 RMK AO2 T01520007
Loading
Personal Weather Stations






























Interactive Weather Map New forecast layout! Learn more

10-Day Weather Forecast

Advertisements
Track Severe Weather on mobile